sensor_id;sensor_type;location;lat;lon;timestamp;temperature;humidity
3310;DHT22;1667;53.238;10.394;2022-08-02T00:01:51;18.60;77.50
3310;DHT22;1667;53.238;10.394;2022-08-02T00:06:51;18.60;77.30
3310;DHT22;1667;53.238;10.394;2022-08-02T00:11:49;18.50;77.60
3310;DHT22;1667;53.238;10.394;2022-08-02T00:16:48;18.40;77.60
3310;DHT22;1667;53.238;10.394;2022-08-02T00:21:46;18.30;77.60
3310;DHT22;1667;53.238;10.394;2022-08-02T00:26:45;18.30;78.30
3310;DHT22;1667;53.238;10.394;2022-08-02T00:31:44;18.20;78.20
3310;DHT22;1667;53.238;10.394;2022-08-02T00:36:42;18.20;78.20
3310;DHT22;1667;53.238;10.394;2022-08-02T00:41:46;18.10;78.30
3310;DHT22;1667;53.238;10.394;2022-08-02T00:46:45;18.00;78.40
3310;DHT22;1667;53.238;10.394;2022-08-02T00:51:43;18.00;78.60
3310;DHT22;1667;53.238;10.394;2022-08-02T00:56:41;17.90;78.50
3310;DHT22;1667;53.238;10.394;2022-08-02T01:01:48;17.90;78.60
3310;DHT22;1667;53.238;10.394;2022-08-02T01:06:53;17.80;78.60
3310;DHT22;1667;53.238;10.394;2022-08-02T01:11:52;17.70;78.20
3310;DHT22;1667;53.238;10.394;2022-08-02T01:16:54;17.60;78.70
3310;DHT22;1667;53.238;10.394;2022-08-02T01:22:13;17.60;78.50
3310;DHT22;1667;53.238;10.394;2022-08-02T01:27:26;17.60;78.90
3310;DHT22;1667;53.238;10.394;2022-08-02T01:32:32;17.50;79.20
3310;DHT22;1667;53.238;10.394;2022-08-02T01:37:38;17.50;79.10
3310;DHT22;1667;53.238;10.394;2022-08-02T01:42:41;17.40;79.20
3310;DHT22;1667;53.238;10.394;2022-08-02T01:47:42;17.30;79.40
3310;DHT22;1667;53.238;10.394;2022-08-02T01:52:46;17.30;79.50
3310;DHT22;1667;53.238;10.394;2022-08-02T01:57:52;17.30;79.70
3310;DHT22;1667;53.238;10.394;2022-08-02T02:02:56;17.20;79.80
3310;DHT22;1667;53.238;10.394;2022-08-02T02:07:57;17.10;79.50
3310;DHT22;1667;53.238;10.394;2022-08-02T02:12:59;17.10;79.40
3310;DHT22;1667;53.238;10.394;2022-08-02T02:18:01;17.00;79.40
3310;DHT22;1667;53.238;10.394;2022-08-02T02:23:09;16.90;79.20
3310;DHT22;1667;53.238;10.394;2022-08-02T02:28:12;16.90;80.00
3310;DHT22;1667;53.238;10.394;2022-08-02T02:33:13;16.80;79.90
3310;DHT22;1667;53.238;10.394;2022-08-02T02:38:17;16.80;79.70
3310;DHT22;1667;53.238;10.394;2022-08-02T02:43:16;16.70;79.90
3310;DHT22;1667;53.238;10.394;2022-08-02T02:48:16;16.70;80.00
3310;DHT22;1667;53.238;10.394;2022-08-02T02:53:17;16.70;80.20
3310;DHT22;1667;53.238;10.394;2022-08-02T02:58:15;16.60;79.60
3310;DHT22;1667;53.238;10.394;2022-08-02T03:03:16;16.50;80.30
3310;DHT22;1667;53.238;10.394;2022-08-02T03:08:17;16.40;80.20
3310;DHT22;1667;53.238;10.394;2022-08-02T03:13:17;16.40;79.80
3310;DHT22;1667;53.238;10.394;2022-08-02T03:18:31;16.30;80.20
3310;DHT22;1667;53.238;10.394;2022-08-02T03:23:30;16.20;80.60
3310;DHT22;1667;53.238;10.394;2022-08-02T03:28:28;16.10;80.40
3310;DHT22;1667;53.238;10.394;2022-08-02T03:33:27;16.10;80.20
3310;DHT22;1667;53.238;10.394;2022-08-02T03:38:29;16.10;81.10
3310;DHT22;1667;53.238;10.394;2022-08-02T03:43:29;16.00;80.70
3310;DHT22;1667;53.238;10.394;2022-08-02T03:48:29;15.90;80.60
3310;DHT22;1667;53.238;10.394;2022-08-02T03:53:32;15.90;80.80
3310;DHT22;1667;53.238;10.394;2022-08-02T03:58:32;15.80;80.80
3310;DHT22;1667;53.238;10.394;2022-08-02T04:03:30;15.80;81.30
3310;DHT22;1667;53.238;10.394;2022-08-02T04:08:28;15.70;81.50
3310;DHT22;1667;53.238;10.394;2022-08-02T04:13:36;15.80;82.00
3310;DHT22;1667;53.238;10.394;2022-08-02T04:18:39;15.80;82.10
3310;DHT22;1667;53.238;10.394;2022-08-02T04:23:38;15.80;82.20
3310;DHT22;1667;53.238;10.394;2022-08-02T04:28:39;15.70;82.30
3310;DHT22;1667;53.238;10.394;2022-08-02T04:33:38;15.70;82.50
3310;DHT22;1667;53.238;10.394;2022-08-02T04:38:37;15.70;82.50
3310;DHT22;1667;53.238;10.394;2022-08-02T04:43:35;15.70;82.60
3310;DHT22;1667;53.238;10.394;2022-08-02T04:48:35;15.70;83.50
3310;DHT22;1667;53.238;10.394;2022-08-02T04:53:33;15.80;83.80
3310;DHT22;1667;53.238;10.394;2022-08-02T04:58:31;15.80;84.30
3310;DHT22;1667;53.238;10.394;2022-08-02T05:03:38;15.90;84.40
3310;DHT22;1667;53.238;10.394;2022-08-02T05:08:36;15.90;84.70
3310;DHT22;1667;53.238;10.394;2022-08-02T05:13:35;15.90;84.60
3310;DHT22;1667;53.238;10.394;2022-08-02T05:18:54;15.90;84.50
3310;DHT22;1667;53.238;10.394;2022-08-02T05:23:53;15.90;84.60
3310;DHT22;1667;53.238;10.394;2022-08-02T05:28:51;16.00;85.00
3310;DHT22;1667;53.238;10.394;2022-08-02T05:33:49;16.00;85.40
3310;DHT22;1667;53.238;10.394;2022-08-02T05:38:49;16.00;85.50
3310;DHT22;1667;53.238;10.394;2022-08-02T05:43:55;16.10;86.10
3310;DHT22;1667;53.238;10.394;2022-08-02T05:48:53;16.20;86.10
3310;DHT22;1667;53.238;10.394;2022-08-02T05:53:58;16.20;86.10
3310;DHT22;1667;53.238;10.394;2022-08-02T05:59:03;16.30;87.20
3310;DHT22;1667;53.238;10.394;2022-08-02T06:04:04;16.40;86.50
3310;DHT22;1667;53.238;10.394;2022-08-02T06:09:09;16.40;86.60
3310;DHT22;1667;53.238;10.394;2022-08-02T06:14:07;16.50;86.80
3310;DHT22;1667;53.238;10.394;2022-08-02T06:19:05;16.60;86.90
3310;DHT22;1667;53.238;10.394;2022-08-02T06:24:07;16.80;87.00
3310;DHT22;1667;53.238;10.394;2022-08-02T06:29:06;16.90;87.50
3310;DHT22;1667;53.238;10.394;2022-08-02T06:34:05;17.00;86.90
3310;DHT22;1667;53.238;10.394;2022-08-02T06:39:07;17.20;86.90
3310;DHT22;1667;53.238;10.394;2022-08-02T06:44:09;17.50;87.10
3310;DHT22;1667;53.238;10.394;2022-08-02T06:49:28;17.80;86.70
3310;DHT22;1667;53.238;10.394;2022-08-02T06:54:48;18.20;87.10
3310;DHT22;1667;53.238;10.394;2022-08-02T06:59:46;18.40;86.50
3310;DHT22;1667;53.238;10.394;2022-08-02T07:04:45;18.60;85.90
3310;DHT22;1667;53.238;10.394;2022-08-02T07:09:44;18.60;84.90
3310;DHT22;1667;53.238;10.394;2022-08-02T07:14:58;18.90;85.10
3310;DHT22;1667;53.238;10.394;2022-08-02T07:19:57;19.20;84.40
3310;DHT22;1667;53.238;10.394;2022-08-02T07:24:57;19.20;84.30
3310;DHT22;1667;53.238;10.394;2022-08-02T07:29:56;19.30;84.30
3310;DHT22;1667;53.238;10.394;2022-08-02T07:34:56;19.30;84.50
3310;DHT22;1667;53.238;10.394;2022-08-02T07:39:58;19.50;84.90
3310;DHT22;1667;53.238;10.394;2022-08-02T07:44:58;19.50;84.70
3310;DHT22;1667;53.238;10.394;2022-08-02T07:49:58;19.70;85.20
3310;DHT22;1667;53.238;10.394;2022-08-02T07:54:56;20.30;84.20
3310;DHT22;1667;53.238;10.394;2022-08-02T07:59:54;20.30;83.80
3310;DHT22;1667;53.238;10.394;2022-08-02T08:04:53;20.30;84.10
3310;DHT22;1667;53.238;10.394;2022-08-02T08:09:52;20.40;84.60
3310;DHT22;1667;53.238;10.394;2022-08-02T08:14:52;20.50;85.00
3310;DHT22;1667;53.238;10.394;2022-08-02T08:19:50;20.70;84.50
3310;DHT22;1667;53.238;10.394;2022-08-02T08:24:49;20.90;84.30
3310;DHT22;1667;53.238;10.394;2022-08-02T08:29:49;21.10;84.30
3310;DHT22;1667;53.238;10.394;2022-08-02T08:34:47;21.20;83.80
3310;DHT22;1667;53.238;10.394;2022-08-02T08:39:47;21.50;83.60
3310;DHT22;1667;53.238;10.394;2022-08-02T08:44:56;21.70;83.70
3310;DHT22;1667;53.238;10.394;2022-08-02T08:49:56;22.00;83.10
3310;DHT22;1667;53.238;10.394;2022-08-02T08:54:58;22.20;82.60
3310;DHT22;1667;53.238;10.394;2022-08-02T08:59:58;22.50;83.40
3310;DHT22;1667;53.238;10.394;2022-08-02T09:04:56;22.70;83.30
3310;DHT22;1667;53.238;10.394;2022-08-02T09:09:55;22.90;82.60
3310;DHT22;1667;53.238;10.394;2022-08-02T09:14:53;23.10;82.70
3310;DHT22;1667;53.238;10.394;2022-08-02T09:20:07;23.20;82.30
3310;DHT22;1667;53.238;10.394;2022-08-02T09:25:14;23.60;80.10
3310;DHT22;1667;53.238;10.394;2022-08-02T09:30:12;23.90;82.00
3310;DHT22;1667;53.238;10.394;2022-08-02T09:35:30;24.00;80.80
3310;DHT22;1667;53.238;10.394;2022-08-02T09:40:48;24.30;78.30
3310;DHT22;1667;53.238;10.394;2022-08-02T09:45:47;24.50;79.50
3310;DHT22;1667;53.238;10.394;2022-08-02T09:50:47;24.70;80.00
3310;DHT22;1667;53.238;10.394;2022-08-02T09:55:54;24.80;79.50
3310;DHT22;1667;53.238;10.394;2022-08-02T10:00:53;25.00;79.40
3310;DHT22;1667;53.238;10.394;2022-08-02T10:05:54;25.10;79.60
3310;DHT22;1667;53.238;10.394;2022-08-02T10:10:59;25.20;78.80
3310;DHT22;1667;53.238;10.394;2022-08-02T10:15:57;25.50;78.10
3310;DHT22;1667;53.238;10.394;2022-08-02T10:21:01;25.70;77.90
3310;DHT22;1667;53.238;10.394;2022-08-02T10:25:59;26.00;78.00
3310;DHT22;1667;53.238;10.394;2022-08-02T10:31:02;26.20;76.90
3310;DHT22;1667;53.238;10.394;2022-08-02T10:36:04;26.50;73.80
3310;DHT22;1667;53.238;10.394;2022-08-02T10:41:03;26.70;72.50
3310;DHT22;1667;53.238;10.394;2022-08-02T10:46:27;26.80;73.50
3310;DHT22;1667;53.238;10.394;2022-08-02T10:51:53;27.00;71.30
3310;DHT22;1667;53.238;10.394;2022-08-02T10:56:53;27.20;72.20
3310;DHT22;1667;53.238;10.394;2022-08-02T11:01:52;27.50;72.40
3310;DHT22;1667;53.238;10.394;2022-08-02T11:07:08;27.60;70.00
3310;DHT22;1667;53.238;10.394;2022-08-02T11:12:08;27.80;70.10
3310;DHT22;1667;53.238;10.394;2022-08-02T11:17:12;28.00;69.20
3310;DHT22;1667;53.238;10.394;2022-08-02T11:22:13;28.20;67.60
3310;DHT22;1667;53.238;10.394;2022-08-02T11:27:21;28.30;66.90
3310;DHT22;1667;53.238;10.394;2022-08-02T11:32:21;28.50;65.10
3310;DHT22;1667;53.238;10.394;2022-08-02T11:37:29;28.80;65.00
3310;DHT22;1667;53.238;10.394;2022-08-02T11:42:31;29.10;63.80
3310;DHT22;1667;53.238;10.394;2022-08-02T11:47:29;29.30;65.00
3310;DHT22;1667;53.238;10.394;2022-08-02T11:52:33;29.50;64.20
3310;DHT22;1667;53.238;10.394;2022-08-02T11:57:33;29.70;65.90
3310;DHT22;1667;53.238;10.394;2022-08-02T12:02:51;29.80;64.80
3310;DHT22;1667;53.238;10.394;2022-08-02T12:07:51;29.90;64.00
3310;DHT22;1667;53.238;10.394;2022-08-02T12:12:51;30.10;61.80
3310;DHT22;1667;53.238;10.394;2022-08-02T12:17:50;30.30;63.90
3310;DHT22;1667;53.238;10.394;2022-08-02T12:23:07;30.50;63.00
3310;DHT22;1667;53.238;10.394;2022-08-02T12:28:13;30.70;61.00
3310;DHT22;1667;53.238;10.394;2022-08-02T12:33:13;30.80;60.70
3310;DHT22;1667;53.238;10.394;2022-08-02T12:38:13;30.90;60.60
3310;DHT22;1667;53.238;10.394;2022-08-02T12:43:19;31.10;59.00
3310;DHT22;1667;53.238;10.394;2022-08-02T12:48:30;31.10;59.30
3310;DHT22;1667;53.238;10.394;2022-08-02T12:53:35;31.30;59.10
3310;DHT22;1667;53.238;10.394;2022-08-02T12:58:47;31.40;59.40
3310;DHT22;1667;53.238;10.394;2022-08-02T13:03:45;31.60;59.00
3310;DHT22;1667;53.238;10.394;2022-08-02T13:09:13;31.70;59.40
3310;DHT22;1667;53.238;10.394;2022-08-02T13:14:12;31.90;58.20
3310;DHT22;1667;53.238;10.394;2022-08-02T13:19:10;32.10;58.80
3310;DHT22;1667;53.238;10.394;2022-08-02T13:24:12;32.20;59.10
3310;DHT22;1667;53.238;10.394;2022-08-02T13:29:31;32.40;59.10
3310;DHT22;1667;53.238;10.394;2022-08-02T13:34:30;32.50;57.60
3310;DHT22;1667;53.238;10.394;2022-08-02T13:39:29;32.70;56.70
3310;DHT22;1667;53.238;10.394;2022-08-02T13:44:28;32.90;56.50
3310;DHT22;1667;53.238;10.394;2022-08-02T13:49:26;32.90;55.80
3310;DHT22;1667;53.238;10.394;2022-08-02T13:54:46;33.00;54.10
3310;DHT22;1667;53.238;10.394;2022-08-02T13:59:44;33.00;54.20
3310;DHT22;1667;53.238;10.394;2022-08-02T14:04:55;32.90;54.30
3310;DHT22;1667;53.238;10.394;2022-08-02T14:09:54;32.80;53.40
3310;DHT22;1667;53.238;10.394;2022-08-02T14:14:53;32.60;54.10
3310;DHT22;1667;53.238;10.394;2022-08-02T14:19:51;32.40;52.70
3310;DHT22;1667;53.238;10.394;2022-08-02T14:24:49;32.30;53.10
3310;DHT22;1667;53.238;10.394;2022-08-02T14:29:49;32.20;54.60
3310;DHT22;1667;53.238;10.394;2022-08-02T14:34:47;32.20;54.30
3310;DHT22;1667;53.238;10.394;2022-08-02T14:39:45;32.20;53.60
3310;DHT22;1667;53.238;10.394;2022-08-02T14:44:58;32.30;53.60
3310;DHT22;1667;53.238;10.394;2022-08-02T14:49:57;32.30;53.80
3310;DHT22;1667;53.238;10.394;2022-08-02T14:54:55;32.20;53.60
3310;DHT22;1667;53.238;10.394;2022-08-02T14:59:54;32.20;54.20
3310;DHT22;1667;53.238;10.394;2022-08-02T15:04:54;32.20;54.50
3310;DHT22;1667;53.238;10.394;2022-08-02T15:09:52;32.30;53.60
3310;DHT22;1667;53.238;10.394;2022-08-02T15:14:50;32.30;54.70
3310;DHT22;1667;53.238;10.394;2022-08-02T15:19:49;32.30;54.20
3310;DHT22;1667;53.238;10.394;2022-08-02T15:24:58;32.30;53.00
3310;DHT22;1667;53.238;10.394;2022-08-02T15:29:56;32.10;54.00
3310;DHT22;1667;53.238;10.394;2022-08-02T15:34:57;32.10;54.10
3310;DHT22;1667;53.238;10.394;2022-08-02T15:39:55;32.10;54.40
3310;DHT22;1667;53.238;10.394;2022-08-02T15:44:55;32.10;54.40
3310;DHT22;1667;53.238;10.394;2022-08-02T15:49:53;32.10;54.80
3310;DHT22;1667;53.238;10.394;2022-08-02T15:54:51;32.00;54.70
3310;DHT22;1667;53.238;10.394;2022-08-02T15:59:50;32.00;54.50
3310;DHT22;1667;53.238;10.394;2022-08-02T16:04:50;32.00;54.70
3310;DHT22;1667;53.238;10.394;2022-08-02T16:09:48;31.90;55.20
3310;DHT22;1667;53.238;10.394;2022-08-02T16:14:47;31.90;55.20
3310;DHT22;1667;53.238;10.394;2022-08-02T16:19:45;31.90;55.90
3310;DHT22;1667;53.238;10.394;2022-08-02T16:24:49;31.80;56.00
3310;DHT22;1667;53.238;10.394;2022-08-02T16:29:47;31.80;55.40
3310;DHT22;1667;53.238;10.394;2022-08-02T16:34:45;31.70;55.40
3310;DHT22;1667;53.238;10.394;2022-08-02T16:40:06;31.50;56.50
3310;DHT22;1667;53.238;10.394;2022-08-02T16:45:08;31.50;56.00
3310;DHT22;1667;53.238;10.394;2022-08-02T16:50:10;31.40;56.50
3310;DHT22;1667;53.238;10.394;2022-08-02T16:55:10;31.30;56.70
3310;DHT22;1667;53.238;10.394;2022-08-02T17:00:09;31.20;57.20
3310;DHT22;1667;53.238;10.394;2022-08-02T17:05:08;31.20;57.10
3310;DHT22;1667;53.238;10.394;2022-08-02T17:10:12;31.20;57.60
3310;DHT22;1667;53.238;10.394;2022-08-02T17:15:14;31.00;57.40
3310;DHT22;1667;53.238;10.394;2022-08-02T17:20:33;30.90;57.80
3310;DHT22;1667;53.238;10.394;2022-08-02T17:25:32;30.70;58.00
3310;DHT22;1667;53.238;10.394;2022-08-02T17:30:38;30.60;58.30
3310;DHT22;1667;53.238;10.394;2022-08-02T17:35:36;30.40;58.70
3310;DHT22;1667;53.238;10.394;2022-08-02T17:40:49;30.30;59.00
3310;DHT22;1667;53.238;10.394;2022-08-02T17:45:48;30.10;59.30
3310;DHT22;1667;53.238;10.394;2022-08-02T17:50:58;30.00;59.50
3310;DHT22;1667;53.238;10.394;2022-08-02T17:55:58;29.90;59.80
3310;DHT22;1667;53.238;10.394;2022-08-02T18:00:56;29.80;59.90
3310;DHT22;1667;53.238;10.394;2022-08-02T18:05:54;29.70;60.00
3310;DHT22;1667;53.238;10.394;2022-08-02T18:10:53;29.50;60.30
3310;DHT22;1667;53.238;10.394;2022-08-02T18:15:53;29.40;61.40
3310;DHT22;1667;53.238;10.394;2022-08-02T18:26:46;29.30;61.40
3310;DHT22;1667;53.238;10.394;2022-08-02T18:31:45;29.20;61.30
3310;DHT22;1667;53.238;10.394;2022-08-02T18:36:47;29.10;61.50
3310;DHT22;1667;53.238;10.394;2022-08-02T18:41:45;29.00;61.60
3310;DHT22;1667;53.238;10.394;2022-08-02T18:46:47;28.90;62.00
3310;DHT22;1667;53.238;10.394;2022-08-02T18:51:47;28.80;62.20
3310;DHT22;1667;53.238;10.394;2022-08-02T18:56:45;28.70;62.50
3310;DHT22;1667;53.238;10.394;2022-08-02T19:01:47;28.70;62.70
3310;DHT22;1667;53.238;10.394;2022-08-02T19:06:47;28.60;62.90
3310;DHT22;1667;53.238;10.394;2022-08-02T19:11:46;28.50;63.00
3310;DHT22;1667;53.238;10.394;2022-08-02T19:23:42;28.30;63.10
3310;DHT22;1667;53.238;10.394;2022-08-02T19:28:50;28.20;63.40
3310;DHT22;1667;53.238;10.394;2022-08-02T19:33:48;28.10;64.00
3310;DHT22;1667;53.238;10.394;2022-08-02T19:39:04;28.00;64.20
3310;DHT22;1667;53.238;10.394;2022-08-02T19:44:03;28.00;64.30
3310;DHT22;1667;53.238;10.394;2022-08-02T19:49:22;27.90;64.20
3310;DHT22;1667;53.238;10.394;2022-08-02T19:54:37;27.80;64.20
3310;DHT22;1667;53.238;10.394;2022-08-02T19:59:53;27.70;64.30
3310;DHT22;1667;53.238;10.394;2022-08-02T20:04:51;27.60;64.40
3310;DHT22;1667;53.238;10.394;2022-08-02T20:09:52;27.60;64.40
3310;DHT22;1667;53.238;10.394;2022-08-02T20:14:51;27.50;64.80
3310;DHT22;1667;53.238;10.394;2022-08-02T20:19:51;27.50;64.70
3310;DHT22;1667;53.238;10.394;2022-08-02T20:24:49;27.40;64.70
3310;DHT22;1667;53.238;10.394;2022-08-02T20:29:48;27.30;65.00
3310;DHT22;1667;53.238;10.394;2022-08-02T20:34:47;27.20;65.40
3310;DHT22;1667;53.238;10.394;2022-08-02T20:39:46;27.10;65.40
3310;DHT22;1667;53.238;10.394;2022-08-02T20:44:45;27.10;65.70
3310;DHT22;1667;53.238;10.394;2022-08-02T20:49:44;27.00;65.80
3310;DHT22;1667;53.238;10.394;2022-08-02T20:54:58;27.00;65.90
3310;DHT22;1667;53.238;10.394;2022-08-02T20:59:56;26.90;66.10
3310;DHT22;1667;53.238;10.394;2022-08-02T21:05:01;26.80;66.00
3310;DHT22;1667;53.238;10.394;2022-08-02T21:10:13;26.80;66.10
3310;DHT22;1667;53.238;10.394;2022-08-02T21:15:11;26.80;66.40
3310;DHT22;1667;53.238;10.394;2022-08-02T21:20:12;26.70;66.80
3310;DHT22;1667;53.238;10.394;2022-08-02T21:25:13;26.70;67.20
3310;DHT22;1667;53.238;10.394;2022-08-02T21:30:11;26.60;67.10
3310;DHT22;1667;53.238;10.394;2022-08-02T21:35:11;26.50;67.30
3310;DHT22;1667;53.238;10.394;2022-08-02T21:40:11;26.50;67.50
3310;DHT22;1667;53.238;10.394;2022-08-02T21:45:10;26.40;67.40
3310;DHT22;1667;53.238;10.394;2022-08-02T21:50:17;26.40;67.60
3310;DHT22;1667;53.238;10.394;2022-08-02T21:55:15;26.40;68.00
3310;DHT22;1667;53.238;10.394;2022-08-02T22:00:20;26.30;68.10
3310;DHT22;1667;53.238;10.394;2022-08-02T22:05:26;26.20;68.20
3310;DHT22;1667;53.238;10.394;2022-08-02T22:10:33;26.20;67.90
3310;DHT22;1667;53.238;10.394;2022-08-02T22:15:51;26.10;68.50
3310;DHT22;1667;53.238;10.394;2022-08-02T22:20:51;26.10;67.90
3310;DHT22;1667;53.238;10.394;2022-08-02T22:25:52;26.00;68.90
3310;DHT22;1667;53.238;10.394;2022-08-02T22:30:52;26.00;68.20
3310;DHT22;1667;53.238;10.394;2022-08-02T22:35:51;26.00;69.20
3310;DHT22;1667;53.238;10.394;2022-08-02T22:40:50;25.90;69.30
3310;DHT22;1667;53.238;10.394;2022-08-02T22:45:50;25.90;69.30
3310;DHT22;1667;53.238;10.394;2022-08-02T22:50:50;25.80;68.70
3310;DHT22;1667;53.238;10.394;2022-08-02T22:55:49;25.80;69.20
3310;DHT22;1667;53.238;10.394;2022-08-02T23:00:47;25.70;69.40
3310;DHT22;1667;53.238;10.394;2022-08-02T23:05:45;25.70;69.80
3310;DHT22;1667;53.238;10.394;2022-08-02T23:10:47;25.70;69.50
3310;DHT22;1667;53.238;10.394;2022-08-02T23:15:45;25.60;69.80
3310;DHT22;1667;53.238;10.394;2022-08-02T23:21:00;25.60;69.80
3310;DHT22;1667;53.238;10.394;2022-08-02T23:26:00;25.50;69.50
3310;DHT22;1667;53.238;10.394;2022-08-02T23:30:58;25.50;70.30
3310;DHT22;1667;53.238;10.394;2022-08-02T23:35:57;25.50;70.40
3310;DHT22;1667;53.238;10.394;2022-08-02T23:40:55;25.40;70.50
3310;DHT22;1667;53.238;10.394;2022-08-02T23:46:01;25.40;70.30
3310;DHT22;1667;53.238;10.394;2022-08-02T23:50:59;25.40;70.90
3310;DHT22;1667;53.238;10.394;2022-08-02T23:55:57;25.30;70.60
